sensor_id;sensor_type;location;lat;lon;timestamp;pressure;altitude;pressure_sealevel;temperature;humidity
18918;BME280;9591;52.742;13.650;2023-04-29T00:00:32;100484.03;;;14.64;92.15
18918;BME280;9591;52.742;13.650;2023-04-29T00:03:19;100477.63;;;14.51;94.07
18918;BME280;9591;52.742;13.650;2023-04-29T00:06:06;100474.22;;;14.64;92.55
18918;BME280;9591;52.742;13.650;2023-04-29T00:08:53;100477.06;;;14.61;92.67
18918;BME280;9591;52.742;13.650;2023-04-29T00:11:41;100470.22;;;14.38;94.74
18918;BME280;9591;52.742;13.650;2023-04-29T00:14:28;100475.91;;;14.50;93.64
18918;BME280;9591;52.742;13.650;2023-04-29T00:17:15;100473.91;;;14.36;94.81
18918;BME280;9591;52.742;13.650;2023-04-29T00:20:02;100477.34;;;14.38;95.00
18918;BME280;9591;52.742;13.650;2023-04-29T00:22:49;100471.50;;;14.49;94.32
18918;BME280;9591;52.742;13.650;2023-04-29T00:25:35;100472.78;;;14.41;94.75
18918;BME280;9591;52.742;13.650;2023-04-29T00:28:24;100445.63;;;14.33;95.45
18918;BME280;9591;52.742;13.650;2023-04-29T00:31:11;100470.72;;;14.47;94.47
18918;BME280;9591;52.742;13.650;2023-04-29T00:33:58;100470.16;;;14.40;95.55
18918;BME280;9591;52.742;13.650;2023-04-29T00:36:44;100462.41;;;14.35;96.20
18918;BME280;9591;52.742;13.650;2023-04-29T00:39:31;100463.41;;;14.33;97.12
18918;BME280;9591;52.742;13.650;2023-04-29T00:42:19;100468.31;;;14.42;95.74
18918;BME280;9591;52.742;13.650;2023-04-29T00:45:09;100469.69;;;14.32;96.49
18918;BME280;9591;52.742;13.650;2023-04-29T00:47:56;100467.09;;;14.30;97.03
18918;BME280;9591;52.742;13.650;2023-04-29T00:50:43;100469.69;;;14.32;96.66
18918;BME280;9591;52.742;13.650;2023-04-29T00:53:30;100462.41;;;14.18;98.98
18918;BME280;9591;52.742;13.650;2023-04-29T00:56:17;100452.91;;;14.30;97.51
18918;BME280;9591;52.742;13.650;2023-04-29T00:59:05;100455.97;;;14.39;96.85
18918;BME280;9591;52.742;13.650;2023-04-29T01:01:55;100445.00;;;14.11;99.78
18918;BME280;9591;52.742;13.650;2023-04-29T01:04:42;100436.41;;;14.06;100.00
18918;BME280;9591;52.742;13.650;2023-04-29T01:07:33;100431.06;;;14.06;100.00
18918;BME280;9591;52.742;13.650;2023-04-29T01:10:26;100428.56;;;14.20;100.00
18918;BME280;9591;52.742;13.650;2023-04-29T01:13:17;100434.66;;;14.22;99.68
18918;BME280;9591;52.742;13.650;2023-04-29T01:16:10;100432.41;;;14.15;100.00
18918;BME280;9591;52.742;13.650;2023-04-29T01:19:02;100439.69;;;14.11;100.00
18918;BME280;9591;52.742;13.650;2023-04-29T01:21:53;100433.88;;;14.03;100.00
18918;BME280;9591;52.742;13.650;2023-04-29T01:24:41;100436.41;;;14.06;100.00
18918;BME280;9591;52.742;13.650;2023-04-29T01:27:30;100427.00;;;14.16;100.00
18918;BME280;9591;52.742;13.650;2023-04-29T01:30:30;100427.63;;;14.21;99.47
18918;BME280;9591;52.742;13.650;2023-04-29T01:33:22;100420.41;;;14.23;99.04
18918;BME280;9591;52.742;13.650;2023-04-29T01:36:21;100431.22;;;14.20;99.24
18918;BME280;9591;52.742;13.650;2023-04-29T01:39:14;100428.25;;;14.09;100.00
18918;BME280;9591;52.742;13.650;2023-04-29T01:42:14;100426.38;;;14.11;100.00
18918;BME280;9591;52.742;13.650;2023-04-29T01:45:05;100422.94;;;13.92;100.00
18918;BME280;9591;52.742;13.650;2023-04-29T01:47:54;100415.41;;;14.00;100.00
18918;BME280;9591;52.742;13.650;2023-04-29T01:50:41;100424.81;;;14.07;100.00
18918;BME280;9591;52.742;13.650;2023-04-29T01:53:30;100430.13;;;14.07;100.00
18918;BME280;9591;52.742;13.650;2023-04-29T01:56:17;100428.41;;;14.06;100.00
18918;BME280;9591;52.742;13.650;2023-04-29T01:59:17;100430.91;;;14.09;100.00
18918;BME280;9591;52.742;13.650;2023-04-29T02:02:28;100428.47;;;14.22;99.25
18918;BME280;9591;52.742;13.650;2023-04-29T02:05:25;100422.38;;;14.20;99.21
18918;BME280;9591;52.742;13.650;2023-04-29T02:08:16;100421.75;;;14.15;100.00
18918;BME280;9591;52.742;13.650;2023-04-29T02:11:04;100412.19;;;14.28;100.00
18918;BME280;9591;52.742;13.650;2023-04-29T02:13:54;100409.78;;;14.06;100.00
18918;BME280;9591;52.742;13.650;2023-04-29T02:16:44;100397.72;;;13.99;100.00
18918;BME280;9591;52.742;13.650;2023-04-29T02:19:32;100406.50;;;13.66;100.00
18918;BME280;9591;52.742;13.650;2023-04-29T02:22:18;100402.06;;;13.84;100.00
18918;BME280;9591;52.742;13.650;2023-04-29T02:25:06;100399.22;;;13.70;100.00
18918;BME280;9591;52.742;13.650;2023-04-29T02:27:52;100406.88;;;13.59;100.00
18918;BME280;9591;52.742;13.650;2023-04-29T02:30:39;100407.03;;;13.56;100.00
18918;BME280;9591;52.742;13.650;2023-04-29T02:33:27;100407.50;;;13.64;100.00
18918;BME280;9591;52.742;13.650;2023-04-29T02:36:14;100404.13;;;13.60;100.00
18918;BME280;9591;52.742;13.650;2023-04-29T02:39:01;100413.09;;;13.40;100.00
18918;BME280;9591;52.742;13.650;2023-04-29T02:41:48;100411.81;;;13.30;100.00
18918;BME280;9591;52.742;13.650;2023-04-29T02:44:35;100404.81;;;13.47;100.00
18918;BME280;9591;52.742;13.650;2023-04-29T02:47:24;100410.38;;;13.42;100.00
18918;BME280;9591;52.742;13.650;2023-04-29T02:50:12;100396.50;;;13.35;100.00
18918;BME280;9591;52.742;13.650;2023-04-29T02:52:59;100404.84;;;13.28;100.00
18918;BME280;9591;52.742;13.650;2023-04-29T02:55:45;100401.69;;;13.20;100.00
18918;BME280;9591;52.742;13.650;2023-04-29T02:58:33;100398.91;;;13.23;100.00
18918;BME280;9591;52.742;13.650;2023-04-29T03:01:19;100397.28;;;13.37;100.00
18918;BME280;9591;52.742;13.650;2023-04-29T03:04:08;100397.81;;;13.27;100.00
18918;BME280;9591;52.742;13.650;2023-04-29T03:06:56;100398.44;;;13.32;100.00
18918;BME280;9591;52.742;13.650;2023-04-29T03:09:44;100390.47;;;13.32;100.00
18918;BME280;9591;52.742;13.650;2023-04-29T03:12:31;100394.84;;;13.33;100.00
18918;BME280;9591;52.742;13.650;2023-04-29T03:15:19;100396.28;;;13.40;100.00
18918;BME280;9591;52.742;13.650;2023-04-29T03:18:06;100389.22;;;13.39;100.00
18918;BME280;9591;52.742;13.650;2023-04-29T03:20:54;100387.63;;;13.54;100.00
18918;BME280;9591;52.742;13.650;2023-04-29T03:23:42;100378.16;;;13.48;100.00
18918;BME280;9591;52.742;13.650;2023-04-29T03:26:36;100385.34;;;13.46;100.00
18918;BME280;9591;52.742;13.650;2023-04-29T03:29:23;100379.53;;;13.38;100.00
18918;BME280;9591;52.742;13.650;2023-04-29T03:32:09;100384.84;;;13.38;100.00
18918;BME280;9591;52.742;13.650;2023-04-29T03:34:56;100384.69;;;13.41;100.00
18918;BME280;9591;52.742;13.650;2023-04-29T03:37:56;100385.50;;;13.43;100.00
18918;BME280;9591;52.742;13.650;2023-04-29T03:40:49;100386.28;;;13.45;100.00
18918;BME280;9591;52.742;13.650;2023-04-29T03:43:36;100391.53;;;13.47;100.00
18918;BME280;9591;52.742;13.650;2023-04-29T03:46:22;100389.22;;;13.39;100.00
18918;BME280;9591;52.742;13.650;2023-04-29T03:49:09;100388.22;;;13.41;100.00
18918;BME280;9591;52.742;13.650;2023-04-29T03:51:56;100391.97;;;13.37;100.00
18918;BME280;9591;52.742;13.650;2023-04-29T03:54:43;100393.84;;;13.35;100.00
18918;BME280;9591;52.742;13.650;2023-04-29T03:57:31;100394.84;;;13.33;100.00
18918;BME280;9591;52.742;13.650;2023-04-29T04:00:18;100390.81;;;13.43;100.00
18918;BME280;9591;52.742;13.650;2023-04-29T04:03:10;100389.16;;;13.40;100.00
18918;BME280;9591;52.742;13.650;2023-04-29T04:05:57;100385.81;;;13.54;100.00
18918;BME280;9591;52.742;13.650;2023-04-29T04:08:44;100390.13;;;13.57;100.00
18918;BME280;9591;52.742;13.650;2023-04-29T04:11:37;100390.59;;;13.65;100.00
18918;BME280;9591;52.742;13.650;2023-04-29T04:14:26;100395.78;;;13.68;100.00
18918;BME280;9591;52.742;13.650;2023-04-29T04:17:13;100400.22;;;13.67;100.00
18918;BME280;9591;52.742;13.650;2023-04-29T04:19:59;100397.19;;;13.75;100.00
18918;BME280;9591;52.742;13.650;2023-04-29T04:22:46;100393.28;;;13.65;100.00
18918;BME280;9591;52.742;13.650;2023-04-29T04:25:51;100390.84;;;13.77;100.00
18918;BME280;9591;52.742;13.650;2023-04-29T04:28:58;100393.50;;;13.77;100.00
18918;BME280;9591;52.742;13.650;2023-04-29T04:31:52;100387.88;;;13.84;100.00
18918;BME280;9591;52.742;13.650;2023-04-29T04:34:40;100387.25;;;13.78;100.00
18918;BME280;9591;52.742;13.650;2023-04-29T04:37:27;100399.81;;;13.92;100.00
18918;BME280;9591;52.742;13.650;2023-04-29T04:40:16;100389.53;;;13.86;100.00
18918;BME280;9591;52.742;13.650;2023-04-29T04:43:30;100396.31;;;13.92;100.00
18918;BME280;9591;52.742;13.650;2023-04-29T04:46:18;100394.44;;;13.94;100.00
18918;BME280;9591;52.742;13.650;2023-04-29T04:49:24;100392.84;;;14.07;100.00
18918;BME280;9591;52.742;13.650;2023-04-29T04:52:11;100391.84;;;14.09;100.00
18918;BME280;9591;52.742;13.650;2023-04-29T04:55:00;100398.72;;;14.14;100.00
18918;BME280;9591;52.742;13.650;2023-04-29T04:57:49;100400.38;;;14.16;100.00
18918;BME280;9591;52.742;13.650;2023-04-29T05:00:35;100396.13;;;14.47;100.00
18918;BME280;9591;52.742;13.650;2023-04-29T05:03:22;100397.22;;;14.42;100.00
18918;BME280;9591;52.742;13.650;2023-04-29T05:06:12;100409.13;;;14.35;100.00
18918;BME280;9591;52.742;13.650;2023-04-29T05:09:02;100402.38;;;14.28;100.00
18918;BME280;9591;52.742;13.650;2023-04-29T05:11:50;100402.38;;;14.28;100.00
18918;BME280;9591;52.742;13.650;2023-04-29T05:14:37;100404.72;;;14.34;100.00
18918;BME280;9591;52.742;13.650;2023-04-29T05:17:24;100404.91;;;14.31;100.00
18918;BME280;9591;52.742;13.650;2023-04-29T05:20:12;100406.78;;;14.47;100.00
18918;BME280;9591;52.742;13.650;2023-04-29T05:23:00;100402.44;;;14.61;100.00
18918;BME280;9591;52.742;13.650;2023-04-29T05:25:52;100406.75;;;14.64;100.00
18918;BME280;9591;52.742;13.650;2023-04-29T05:28:39;100391.16;;;14.39;100.00
18918;BME280;9591;52.742;13.650;2023-04-29T05:31:27;100412.03;;;14.48;100.00
18918;BME280;9591;52.742;13.650;2023-04-29T05:34:18;100416.63;;;14.62;100.00
18918;BME280;9591;52.742;13.650;2023-04-29T05:37:04;100413.97;;;14.62;100.00
18918;BME280;9591;52.742;13.650;2023-04-29T05:40:03;100411.47;;;14.59;100.00
18918;BME280;9591;52.742;13.650;2023-04-29T05:42:51;100419.84;;;14.51;100.00
18918;BME280;9591;52.742;13.650;2023-04-29T05:45:39;100417.97;;;14.53;100.00
18918;BME280;9591;52.742;13.650;2023-04-29T05:48:26;100421.47;;;14.71;100.00
18918;BME280;9591;52.742;13.650;2023-04-29T05:51:13;100423.59;;;14.64;100.00
18918;BME280;9591;52.742;13.650;2023-04-29T05:54:00;100418.91;;;14.52;100.00
18918;BME280;9591;52.742;13.650;2023-04-29T05:56:49;100425.22;;;14.67;100.00
18918;BME280;9591;52.742;13.650;2023-04-29T05:59:36;100426.09;;;14.83;100.00
18918;BME280;9591;52.742;13.650;2023-04-29T06:02:23;100429.03;;;14.94;100.00
18918;BME280;9591;52.742;13.650;2023-04-29T06:05:10;100427.84;;;15.00;100.00
18918;BME280;9591;52.742;13.650;2023-04-29T06:08:04;100436.75;;;14.83;100.00
18918;BME280;9591;52.742;13.650;2023-04-29T06:11:10;100432.69;;;14.76;100.00
18918;BME280;9591;52.742;13.650;2023-04-29T06:13:59;100433.56;;;14.76;100.00
18918;BME280;9591;52.742;13.650;2023-04-29T06:16:46;100430.22;;;14.89;100.00
18918;BME280;9591;52.742;13.650;2023-04-29T06:19:33;100438.06;;;14.92;100.00
18918;BME280;9591;52.742;13.650;2023-04-29T06:22:20;100448.41;;;14.98;100.00
18918;BME280;9591;52.742;13.650;2023-04-29T06:25:10;100444.50;;;14.88;100.00
18918;BME280;9591;52.742;13.650;2023-04-29T06:28:04;100453.81;;;14.96;100.00
18918;BME280;9591;52.742;13.650;2023-04-29T06:30:55;100456.97;;;14.87;100.00
18918;BME280;9591;52.742;13.650;2023-04-29T06:33:42;100453.25;;;14.74;100.00
18918;BME280;9591;52.742;13.650;2023-04-29T06:36:29;100455.16;;;14.88;100.00
18918;BME280;9591;52.742;13.650;2023-04-29T06:39:19;100467.97;;;14.81;100.00
18918;BME280;9591;52.742;13.650;2023-04-29T06:42:45;100464.78;;;14.74;100.00
18918;BME280;9591;52.742;13.650;2023-04-29T06:45:52;100468.44;;;14.56;100.00
18918;BME280;9591;52.742;13.650;2023-04-29T06:48:46;100475.34;;;14.76;100.00
18918;BME280;9591;52.742;13.650;2023-04-29T06:51:33;100475.72;;;14.86;100.00
18918;BME280;9591;52.742;13.650;2023-04-29T06:54:21;100481.38;;;14.80;100.00
18918;BME280;9591;52.742;13.650;2023-04-29T06:57:08;100477.69;;;14.66;100.00
18918;BME280;9591;52.742;13.650;2023-04-29T06:59:54;100489.28;;;14.81;100.00
18918;BME280;9591;52.742;13.650;2023-04-29T07:02:42;100489.28;;;14.81;100.00
18918;BME280;9591;52.742;13.650;2023-04-29T07:05:30;100489.72;;;14.73;100.00
18918;BME280;9591;52.742;13.650;2023-04-29T07:08:17;100496.00;;;14.72;100.00
18918;BME280;9591;52.742;13.650;2023-04-29T07:11:04;100492.56;;;14.70;100.00
18918;BME280;9591;52.742;13.650;2023-04-29T07:13:51;100496.59;;;14.77;100.00
18918;BME280;9591;52.742;13.650;2023-04-29T07:16:38;100504.34;;;14.82;100.00
18918;BME280;9591;52.742;13.650;2023-04-29T07:19:27;100512.66;;;14.76;100.00
18918;BME280;9591;52.742;13.650;2023-04-29T07:22:16;100513.34;;;14.64;100.00
18918;BME280;9591;52.742;13.650;2023-04-29T07:25:03;100500.19;;;14.61;100.00
18918;BME280;9591;52.742;13.650;2023-04-29T07:27:50;100521.03;;;14.70;100.00
18918;BME280;9591;52.742;13.650;2023-04-29T07:30:37;100520.25;;;14.51;100.00
18918;BME280;9591;52.742;13.650;2023-04-29T07:33:23;100525.66;;;14.49;100.00
18918;BME280;9591;52.742;13.650;2023-04-29T07:36:10;100525.34;;;14.55;100.00
18918;BME280;9591;52.742;13.650;2023-04-29T07:38:59;100527.47;;;14.66;100.00
18918;BME280;9591;52.742;13.650;2023-04-29T07:41:46;100533.50;;;14.52;100.00
18918;BME280;9591;52.742;13.650;2023-04-29T07:44:32;100531.44;;;14.40;100.00
18918;BME280;9591;52.742;13.650;2023-04-29T07:47:20;100536.72;;;14.41;100.00
18918;BME280;9591;52.742;13.650;2023-04-29T07:50:08;100549.88;;;14.62;100.00
18918;BME280;9591;52.742;13.650;2023-04-29T07:52:56;100551.28;;;14.69;100.00
18918;BME280;9591;52.742;13.650;2023-04-29T07:55:45;100552.69;;;14.59;100.00
18918;BME280;9591;52.742;13.650;2023-04-29T07:58:32;100549.47;;;14.69;100.00
18918;BME280;9591;52.742;13.650;2023-04-29T08:01:19;100550.94;;;14.40;100.00
18918;BME280;9591;52.742;13.650;2023-04-29T08:04:06;100557.72;;;14.48;100.00
18918;BME280;9591;52.742;13.650;2023-04-29T08:07:05;100568.63;;;14.60;100.00
18918;BME280;9591;52.742;13.650;2023-04-29T08:09:53;100573.72;;;14.65;100.00
18918;BME280;9591;52.742;13.650;2023-04-29T08:12:44;100573.41;;;14.71;100.00
18918;BME280;9591;52.742;13.650;2023-04-29T08:15:31;100587.13;;;14.63;100.00
18918;BME280;9591;52.742;13.650;2023-04-29T08:18:18;100587.50;;;14.56;100.00
18918;BME280;9591;52.742;13.650;2023-04-29T08:21:05;100588.19;;;14.76;100.00
18918;BME280;9591;52.742;13.650;2023-04-29T08:23:53;100586.53;;;14.74;100.00
18918;BME280;9591;52.742;13.650;2023-04-29T08:26:40;100595.59;;;15.04;100.00
18918;BME280;9591;52.742;13.650;2023-04-29T08:29:29;100604.53;;;15.03;100.00
18918;BME280;9591;52.742;13.650;2023-04-29T08:32:17;100608.09;;;14.87;100.00
18918;BME280;9591;52.742;13.650;2023-04-29T08:35:04;100597.19;;;14.74;100.00
18918;BME280;9591;52.742;13.650;2023-04-29T08:37:52;100620.75;;;14.66;100.00
18918;BME280;9591;52.742;13.650;2023-04-29T08:40:41;100625.53;;;14.59;100.00
18918;BME280;9591;52.742;13.650;2023-04-29T08:43:28;100631.72;;;14.60;100.00
18918;BME280;9591;52.742;13.650;2023-04-29T08:46:17;100632.63;;;14.76;100.00
18918;BME280;9591;52.742;13.650;2023-04-29T08:49:05;100632.41;;;14.63;100.00
18918;BME280;9591;52.742;13.650;2023-04-29T08:51:52;100652.31;;;14.56;100.00
18918;BME280;9591;52.742;13.650;2023-04-29T08:54:39;100657.59;;;14.39;100.00
18918;BME280;9591;52.742;13.650;2023-04-29T08:57:27;100659.72;;;14.14;100.00
18918;BME280;9591;52.742;13.650;2023-04-29T09:00:16;100669.50;;;14.13;100.00
18918;BME280;9591;52.742;13.650;2023-04-29T09:03:12;100679.56;;;14.25;100.00
18918;BME280;9591;52.742;13.650;2023-04-29T09:06:00;100676.78;;;14.09;100.00
18918;BME280;9591;52.742;13.650;2023-04-29T09:08:47;100689.88;;;13.76;100.00
18918;BME280;9591;52.742;13.650;2023-04-29T09:11:35;100694.91;;;14.01;100.00
18918;BME280;9591;52.742;13.650;2023-04-29T09:14:23;100702.75;;;14.04;100.00
18918;BME280;9591;52.742;13.650;2023-04-29T09:17:10;100702.16;;;13.98;100.00
18918;BME280;9591;52.742;13.650;2023-04-29T09:19:58;100700.88;;;13.88;100.00
18918;BME280;9591;52.742;13.650;2023-04-29T09:22:46;100701.59;;;13.91;100.00
18918;BME280;9591;52.742;13.650;2023-04-29T09:25:33;100709.66;;;13.71;100.00
18918;BME280;9591;52.742;13.650;2023-04-29T09:28:20;100713.19;;;13.71;100.00
18918;BME280;9591;52.742;13.650;2023-04-29T09:31:07;100720.94;;;13.95;100.00
18918;BME280;9591;52.742;13.650;2023-04-29T09:33:56;100723.03;;;13.69;100.00
18918;BME280;9591;52.742;13.650;2023-04-29T09:36:46;100701.28;;;13.60;100.00
18918;BME280;9591;52.742;13.650;2023-04-29T09:39:37;100725.63;;;13.90;100.00
18918;BME280;9591;52.742;13.650;2023-04-29T09:42:25;100738.00;;;13.72;100.00
18918;BME280;9591;52.742;13.650;2023-04-29T09:45:11;100733.81;;;13.66;100.00
18918;BME280;9591;52.742;13.650;2023-04-29T09:48:00;100706.19;;;13.69;100.00
18918;BME280;9591;52.742;13.650;2023-04-29T09:50:59;100739.19;;;14.23;100.00
18918;BME280;9591;52.742;13.650;2023-04-29T09:53:48;100744.88;;;14.34;100.00
18918;BME280;9591;52.742;13.650;2023-04-29T09:56:47;100753.56;;;14.37;100.00
18918;BME280;9591;52.742;13.650;2023-04-29T09:59:36;100754.00;;;14.28;100.00
18918;BME280;9591;52.742;13.650;2023-04-29T10:02:24;100763.22;;;14.40;100.00
18918;BME280;9591;52.742;13.650;2023-04-29T10:05:13;100725.34;;;14.33;100.00
18918;BME280;9591;52.742;13.650;2023-04-29T10:08:00;100766.81;;;14.39;100.00
18918;BME280;9591;52.742;13.650;2023-04-29T10:10:49;100765.22;;;14.16;100.00
18918;BME280;9591;52.742;13.650;2023-04-29T10:13:42;100770.53;;;13.97;100.00
18918;BME280;9591;52.742;13.650;2023-04-29T10:16:33;100773.44;;;14.11;100.00
18918;BME280;9591;52.742;13.650;2023-04-29T10:19:25;100785.22;;;14.06;100.00
18918;BME280;9591;52.742;13.650;2023-04-29T10:22:18;100783.25;;;14.30;100.00
18918;BME280;9591;52.742;13.650;2023-04-29T10:25:09;100787.16;;;14.41;100.00
18918;BME280;9591;52.742;13.650;2023-04-29T10:27:58;100780.84;;;14.80;100.00
18918;BME280;9591;52.742;13.650;2023-04-29T10:30:49;100783.09;;;15.06;100.00
18918;BME280;9591;52.742;13.650;2023-04-29T10:33:39;100783.25;;;15.55;100.00
18918;BME280;9591;52.742;13.650;2023-04-29T10:36:29;100755.94;;;15.50;100.00
18918;BME280;9591;52.742;13.650;2023-04-29T10:39:23;100787.34;;;15.62;100.00
18918;BME280;9591;52.742;13.650;2023-04-29T10:42:20;100788.34;;;16.10;100.00
18918;BME280;9591;52.742;13.650;2023-04-29T10:45:18;100788.03;;;16.16;100.00
18918;BME280;9591;52.742;13.650;2023-04-29T10:48:13;100797.38;;;16.41;100.00
18918;BME280;9591;52.742;13.650;2023-04-29T10:51:00;100792.75;;;16.11;98.43
18918;BME280;9591;52.742;13.650;2023-04-29T10:53:58;100794.88;;;16.69;94.94
18918;BME280;9591;52.742;13.650;2023-04-29T10:56:47;100796.53;;;16.71;93.91
18918;BME280;9591;52.742;13.650;2023-04-29T10:59:44;100789.53;;;16.69;95.72
18918;BME280;9591;52.742;13.650;2023-04-29T11:02:32;100795.47;;;16.43;93.95
18918;BME280;9591;52.742;13.650;2023-04-29T11:05:29;100809.56;;;16.13;95.48
18918;BME280;9591;52.742;13.650;2023-04-29T11:08:19;100812.53;;;15.91;98.20
18918;BME280;9591;52.742;13.650;2023-04-29T11:11:08;100803.84;;;16.03;98.61
18918;BME280;9591;52.742;13.650;2023-04-29T11:13:55;100807.44;;;16.51;97.46
18918;BME280;9591;52.742;13.650;2023-04-29T11:16:50;100811.97;;;16.98;94.06
18918;BME280;9591;52.742;13.650;2023-04-29T11:19:42;100811.41;;;17.23;91.66
18918;BME280;9591;52.742;13.650;2023-04-29T11:22:31;100817.28;;;17.14;89.75
18918;BME280;9591;52.742;13.650;2023-04-29T11:25:18;100823.69;;;17.41;85.77
18918;BME280;9591;52.742;13.650;2023-04-29T11:28:06;100817.50;;;16.95;89.77
18918;BME280;9591;52.742;13.650;2023-04-29T11:30:53;100816.88;;;16.90;88.70
18918;BME280;9591;52.742;13.650;2023-04-29T11:33:40;100820.84;;;16.98;89.24
18918;BME280;9591;52.742;13.650;2023-04-29T11:36:30;100782.78;;;16.93;88.97
18918;BME280;9591;52.742;13.650;2023-04-29T11:39:17;100832.75;;;17.09;90.02
18918;BME280;9591;52.742;13.650;2023-04-29T11:42:04;100830.78;;;16.96;89.06
18918;BME280;9591;52.742;13.650;2023-04-29T11:44:53;100833.97;;;16.87;88.42
18918;BME280;9591;52.742;13.650;2023-04-29T11:47:52;100838.63;;;16.99;87.01
18918;BME280;9591;52.742;13.650;2023-04-29T11:50:41;100840.25;;;16.70;90.61
18918;BME280;9591;52.742;13.650;2023-04-29T11:53:29;100852.25;;;16.79;88.37
18918;BME280;9591;52.742;13.650;2023-04-29T11:56:16;100856.78;;;16.46;89.24
18918;BME280;9591;52.742;13.650;2023-04-29T11:59:03;100858.31;;;16.50;90.05
18918;BME280;9591;52.742;13.650;2023-04-29T12:01:54;100863.38;;;16.71;89.69
18918;BME280;9591;52.742;13.650;2023-04-29T12:04:47;100865.59;;;16.63;91.00
18918;BME280;9591;52.742;13.650;2023-04-29T12:07:38;100868.50;;;16.59;92.45
18918;BME280;9591;52.742;13.650;2023-04-29T12:10:30;100864.53;;;16.50;89.72
18918;BME280;9591;52.742;13.650;2023-04-29T12:13:27;100876.75;;;16.71;89.30
18918;BME280;9591;52.742;13.650;2023-04-29T12:16:28;100878.16;;;16.79;89.89
18918;BME280;9591;52.742;13.650;2023-04-29T12:19:24;100883.84;;;16.73;90.44
18918;BME280;9591;52.742;13.650;2023-04-29T12:22:21;100887.19;;;16.27;93.03
18918;BME280;9591;52.742;13.650;2023-04-29T12:25:15;100886.28;;;15.77;93.48
18918;BME280;9591;52.742;13.650;2023-04-29T12:28:29;100885.56;;;16.08;92.79
18918;BME280;9591;52.742;13.650;2023-04-29T12:31:35;100902.50;;;16.24;92.09
18918;BME280;9591;52.742;13.650;2023-04-29T12:34:51;100888.66;;;16.33;92.19
18918;BME280;9591;52.742;13.650;2023-04-29T12:37:51;100890.63;;;16.29;92.99
18918;BME280;9591;52.742;13.650;2023-04-29T12:40:59;100891.34;;;16.49;90.02
18918;BME280;9591;52.742;13.650;2023-04-29T12:44:05;100899.88;;;16.39;93.28
18918;BME280;9591;52.742;13.650;2023-04-29T12:47:14;100901.09;;;16.50;90.92
18918;BME280;9591;52.742;13.650;2023-04-29T12:50:18;100905.06;;;16.58;91.24
18918;BME280;9591;52.742;13.650;2023-04-29T12:53:33;100905.16;;;16.74;90.08
18918;BME280;9591;52.742;13.650;2023-04-29T12:56:29;100878.09;;;16.63;92.28
18918;BME280;9591;52.742;13.650;2023-04-29T12:59:27;100909.97;;;16.83;88.64
18918;BME280;9591;52.742;13.650;2023-04-29T13:02:26;100899.72;;;16.91;88.89
18918;BME280;9591;52.742;13.650;2023-04-29T13:05:24;100906.81;;;16.92;88.84
18918;BME280;9591;52.742;13.650;2023-04-29T13:08:24;100908.19;;;16.99;87.09
18918;BME280;9591;52.742;13.650;2023-04-29T13:11:22;100903.88;;;17.28;86.33
18918;BME280;9591;52.742;13.650;2023-04-29T13:14:33;100908.28;;;17.14;85.66
18918;BME280;9591;52.742;13.650;2023-04-29T13:17:26;100916.81;;;17.20;83.09
18918;BME280;9591;52.742;13.650;2023-04-29T13:20:28;100924.69;;;17.08;84.32
18918;BME280;9591;52.742;13.650;2023-04-29T13:23:21;100925.28;;;17.13;80.63
18918;BME280;9591;52.742;13.650;2023-04-29T13:26:10;100934.50;;;17.07;80.29
18918;BME280;9591;52.742;13.650;2023-04-29T13:29:12;100931.41;;;17.15;80.59
18918;BME280;9591;52.742;13.650;2023-04-29T13:32:13;100938.31;;;17.19;80.08
18918;BME280;9591;52.742;13.650;2023-04-29T13:35:06;100941.31;;;17.44;80.20
18918;BME280;9591;52.742;13.650;2023-04-29T13:37:56;100928.75;;;17.60;81.95
18918;BME280;9591;52.742;13.650;2023-04-29T13:40:58;100935.56;;;17.82;77.67
18918;BME280;9591;52.742;13.650;2023-04-29T13:43:58;100939.28;;;17.79;76.82
18918;BME280;9591;52.742;13.650;2023-04-29T13:47:20;100958.06;;;18.09;76.69
18918;BME280;9591;52.742;13.650;2023-04-29T13:50:16;100949.16;;;17.79;72.60
18918;BME280;9591;52.742;13.650;2023-04-29T13:53:30;100948.78;;;17.85;70.88
18918;BME280;9591;52.742;13.650;2023-04-29T13:56:47;100945.09;;;17.72;72.28
18918;BME280;9591;52.742;13.650;2023-04-29T14:00:05;100950.19;;;17.60;71.49
18918;BME280;9591;52.742;13.650;2023-04-29T14:03:24;100953.13;;;17.72;70.47
18918;BME280;9591;52.742;13.650;2023-04-29T14:06:16;100948.97;;;17.50;69.67
18918;BME280;9591;52.742;13.650;2023-04-29T14:09:15;100952.59;;;17.81;71.02
18918;BME280;9591;52.742;13.650;2023-04-29T14:12:03;100949.50;;;18.02;69.32
18918;BME280;9591;52.742;13.650;2023-04-29T14:14:52;100956.38;;;17.92;70.81
18918;BME280;9591;52.742;13.650;2023-04-29T14:17:40;100954.41;;;17.64;69.66
18918;BME280;9591;52.742;13.650;2023-04-29T14:20:28;100961.94;;;17.42;71.29
18918;BME280;9591;52.742;13.650;2023-04-29T14:23:16;100962.38;;;17.50;72.41
18918;BME280;9591;52.742;13.650;2023-04-29T14:26:07;100973.28;;;17.16;71.55
18918;BME280;9591;52.742;13.650;2023-04-29T14:29:12;100976.00;;;17.61;72.12
18918;BME280;9591;52.742;13.650;2023-04-29T14:32:00;100974.75;;;17.68;71.89
18918;BME280;9591;52.742;13.650;2023-04-29T14:34:48;100976.44;;;17.54;73.34
18918;BME280;9591;52.742;13.650;2023-04-29T14:37:37;100974.56;;;17.72;71.20
18918;BME280;9591;52.742;13.650;2023-04-29T14:40:24;100966.59;;;17.86;73.09
18918;BME280;9591;52.742;13.650;2023-04-29T14:43:12;100977.41;;;17.53;72.60
18918;BME280;9591;52.742;13.650;2023-04-29T14:46:00;100980.28;;;17.65;71.26